Terminal Aerodrome Forecast
Issued by NWS Shreveport, LA

Home | Current Version | Previous Version | Text Only | Print | Product List | Glossary On
Versions: 1 2 3 4 5 6 7 8 9 10 11 12 13 14 15 16 17
580
FTUS44 KSHV 252347
TAFLFK
TAF
KLFK 252347Z 2600/2624 18010KT P6SM SCT280
     FM260900 17010KT P6SM BKN015
     FM261500 20013G20KT P6SM OVC020
     FM261900 18015G22KT P6SM OVC025
     FM262100 17019G26KT P6SM BKN050=

USA.gov is the U.S. government's official web portal to all federal, state and local government web resources and services.